sensor_id;sensor_type;location;lat;lon;timestamp;pressure;altitude;pressure_sealevel;temperature;humidity
35704;BME280;21820;51.112;13.762;2023-01-25T00:01:54;101402.81;;;22.67;54.46
35704;BME280;21820;51.112;13.762;2023-01-25T00:04:20;101394.44;;;22.62;54.21
35704;BME280;21820;51.112;13.762;2023-01-25T00:06:46;101398.38;;;22.55;54.73
35704;BME280;21820;51.112;13.762;2023-01-25T00:09:11;101398.56;;;22.52;54.13
35704;BME280;21820;51.112;13.762;2023-01-25T00:11:37;101401.72;;;22.44;54.98
35704;BME280;21820;51.112;13.762;2023-01-25T00:14:04;101396.75;;;22.40;55.12
35704;BME280;21820;51.112;13.762;2023-01-25T00:16:29;101396.03;;;22.38;55.29
35704;BME280;21820;51.112;13.762;2023-01-25T00:18:55;101391.38;;;22.29;55.01
35704;BME280;21820;51.112;13.762;2023-01-25T00:21:23;101396.84;;;22.26;55.65
35704;BME280;21820;51.112;13.762;2023-01-25T00:23:49;101393.66;;;22.21;55.35
35704;BME280;21820;51.112;13.762;2023-01-25T00:26:14;101400.97;;;22.16;55.66
35704;BME280;21820;51.112;13.762;2023-01-25T00:28:40;101406.44;;;22.13;55.61
35704;BME280;21820;51.112;13.762;2023-01-25T00:31:06;101400.66;;;22.08;56.34
35704;BME280;21820;51.112;13.762;2023-01-25T00:36:27;101388.31;;;21.95;55.89
35704;BME280;21820;51.112;13.762;2023-01-25T00:38:53;101389.06;;;21.98;56.59
35704;BME280;21820;51.112;13.762;2023-01-25T00:41:19;101398.81;;;21.95;56.43
35704;BME280;21820;51.112;13.762;2023-01-25T00:43:44;101382.94;;;21.84;56.20
35704;BME280;21820;51.112;13.762;2023-01-25T00:46:14;101396.69;;;21.88;56.87
35704;BME280;21820;51.112;13.762;2023-01-25T00:48:40;101394.19;;;21.86;56.30
35704;BME280;21820;51.112;13.762;2023-01-25T00:51:06;101374.06;;;21.73;57.09
35704;BME280;21820;51.112;13.762;2023-01-25T00:53:31;101389.22;;;21.82;56.67
35704;BME280;21820;51.112;13.762;2023-01-25T00:55:56;101394.53;;;21.80;57.02
35704;BME280;21820;51.112;13.762;2023-01-25T00:58:22;101388.66;;;21.77;56.60
35704;BME280;21820;51.112;13.762;2023-01-25T01:00:47;101382.59;;;21.76;56.67
35704;BME280;21820;51.112;13.762;2023-01-25T01:03:13;101387.84;;;21.76;56.59
35704;BME280;21820;51.112;13.762;2023-01-25T01:05:38;101366.88;;;21.62;56.75
35704;BME280;21820;51.112;13.762;2023-01-25T01:08:03;101384.63;;;21.71;57.25
35704;BME280;21820;51.112;13.762;2023-01-25T01:10:29;101374.16;;;21.71;56.80
35704;BME280;21820;51.112;13.762;2023-01-25T01:12:54;101375.28;;;21.67;57.47
35704;BME280;21820;51.112;13.762;2023-01-25T01:15:19;101378.00;;;21.66;57.48
35704;BME280;21820;51.112;13.762;2023-01-25T01:17:45;101375.59;;;21.63;57.52
35704;BME280;21820;51.112;13.762;2023-01-25T01:20:10;101368.59;;;21.63;57.42
35704;BME280;21820;51.112;13.762;2023-01-25T01:22:36;101370.44;;;21.61;57.40
35704;BME280;21820;51.112;13.762;2023-01-25T01:25:02;101364.38;;;21.61;57.75
35704;BME280;21820;51.112;13.762;2023-01-25T01:27:27;101361.75;;;21.61;57.32
35704;BME280;21820;51.112;13.762;2023-01-25T01:29:52;101350.63;;;21.57;57.59
35704;BME280;21820;51.112;13.762;2023-01-25T01:32:18;101352.50;;;21.55;57.89
35704;BME280;21820;51.112;13.762;2023-01-25T01:34:43;101342.97;;;21.54;57.87
35704;BME280;21820;51.112;13.762;2023-01-25T01:37:08;101341.22;;;21.55;57.26
35704;BME280;21820;51.112;13.762;2023-01-25T01:39:34;101342.22;;;21.52;57.63
35704;BME280;21820;51.112;13.762;2023-01-25T01:41:59;101337.84;;;21.53;57.54
35704;BME280;21820;51.112;13.762;2023-01-25T01:47:14;101316.47;;;21.46;58.40
35704;BME280;21820;51.112;13.762;2023-01-25T01:49:50;101324.75;;;21.53;57.64
35704;BME280;21820;51.112;13.762;2023-01-25T01:52:21;101324.66;;;21.54;58.02
35704;BME280;21820;51.112;13.762;2023-01-25T01:54:53;101317.56;;;21.56;58.01
35704;BME280;21820;51.112;13.762;2023-01-25T01:57:24;101304.94;;;21.49;57.49
35704;BME280;21820;51.112;13.762;2023-01-25T02:00:04;101318.88;;;21.76;56.72
35704;BME280;21820;51.112;13.762;2023-01-25T02:02:31;101307.94;;;21.83;56.74
35704;BME280;21820;51.112;13.762;2023-01-25T02:04:59;101306.94;;;21.98;56.23
35704;BME280;21820;51.112;13.762;2023-01-25T02:07:31;101310.03;;;22.18;55.21
35704;BME280;21820;51.112;13.762;2023-01-25T02:09:58;101297.78;;;22.31;55.24
35704;BME280;21820;51.112;13.762;2023-01-25T02:12:24;101307.03;;;22.49;54.04
35704;BME280;21820;51.112;13.762;2023-01-25T02:14:51;101288.81;;;22.60;53.98
35704;BME280;21820;51.112;13.762;2023-01-25T02:17:24;101296.59;;;22.74;53.78
35704;BME280;21820;51.112;13.762;2023-01-25T02:19:57;101292.91;;;22.76;53.14
35704;BME280;21820;51.112;13.762;2023-01-25T02:22:32;101285.81;;;22.66;53.94
35704;BME280;21820;51.112;13.762;2023-01-25T02:25:04;101286.41;;;22.57;53.84
35704;BME280;21820;51.112;13.762;2023-01-25T02:27:30;101275.47;;;22.50;53.85
35704;BME280;21820;51.112;13.762;2023-01-25T02:29:56;101273.19;;;22.46;55.00
35704;BME280;21820;51.112;13.762;2023-01-25T02:32:22;101275.28;;;22.41;54.53
35704;BME280;21820;51.112;13.762;2023-01-25T02:34:47;101277.59;;;22.33;55.19
35704;BME280;21820;51.112;13.762;2023-01-25T02:37:13;101253.53;;;22.14;55.21
35704;BME280;21820;51.112;13.762;2023-01-25T02:39:40;101267.06;;;22.20;55.24
35704;BME280;21820;51.112;13.762;2023-01-25T02:42:06;101265.72;;;22.15;55.53
35704;BME280;21820;51.112;13.762;2023-01-25T02:44:32;101261.72;;;22.09;55.99
35704;BME280;21820;51.112;13.762;2023-01-25T02:46:57;101251.41;;;21.93;55.60
35704;BME280;21820;51.112;13.762;2023-01-25T02:49:23;101258.13;;;21.98;55.54
35704;BME280;21820;51.112;13.762;2023-01-25T02:51:50;101255.91;;;21.91;55.53
35704;BME280;21820;51.112;13.762;2023-01-25T02:54:18;101255.28;;;21.88;56.53
35704;BME280;21820;51.112;13.762;2023-01-25T02:56:45;101258.19;;;21.83;56.12
35704;BME280;21820;51.112;13.762;2023-01-25T02:59:11;101255.03;;;21.78;56.46
35704;BME280;21820;51.112;13.762;2023-01-25T03:01:39;101256.84;;;21.78;56.80
35704;BME280;21820;51.112;13.762;2023-01-25T03:04:05;101258.69;;;21.76;56.52
35704;BME280;21820;51.112;13.762;2023-01-25T03:06:32;101249.44;;;21.70;56.50
35704;BME280;21820;51.112;13.762;2023-01-25T03:08:57;101260.00;;;21.69;57.16
35704;BME280;21820;51.112;13.762;2023-01-25T03:11:23;101257.69;;;21.64;57.52
35704;BME280;21820;51.112;13.762;2023-01-25T03:13:49;101255.28;;;21.61;57.40
35704;BME280;21820;51.112;13.762;2023-01-25T03:16:14;101245.72;;;21.60;57.42
35704;BME280;21820;51.112;13.762;2023-01-25T03:18:40;101251.16;;;21.57;57.21
35704;BME280;21820;51.112;13.762;2023-01-25T03:21:14;101249.50;;;21.56;57.84
35704;BME280;21820;51.112;13.762;2023-01-25T03:23:41;101248.75;;;21.54;57.10
35704;BME280;21820;51.112;13.762;2023-01-25T03:26:11;101246.34;;;21.51;57.11
35704;BME280;21820;51.112;13.762;2023-01-25T03:28:37;101238.59;;;21.50;57.27
35704;BME280;21820;51.112;13.762;2023-01-25T03:31:03;101242.78;;;21.52;57.16
35704;BME280;21820;51.112;13.762;2023-01-25T03:33:29;101247.47;;;21.47;57.17
35704;BME280;21820;51.112;13.762;2023-01-25T03:35:54;101239.81;;;21.44;57.35
35704;BME280;21820;51.112;13.762;2023-01-25T03:38:21;101244.22;;;21.44;57.36
35704;BME280;21820;51.112;13.762;2023-01-25T03:40:46;101255.13;;;21.50;57.34
35704;BME280;21820;51.112;13.762;2023-01-25T03:43:12;101238.28;;;21.54;57.27
35704;BME280;21820;51.112;13.762;2023-01-25T03:45:37;101238.22;;;21.68;56.64
35704;BME280;21820;51.112;13.762;2023-01-25T03:48:03;101240.28;;;21.77;56.35
35704;BME280;21820;51.112;13.762;2023-01-25T03:50:29;101232.69;;;22.00;56.13
35704;BME280;21820;51.112;13.762;2023-01-25T03:52:54;101235.84;;;22.17;55.51
35704;BME280;21820;51.112;13.762;2023-01-25T03:55:25;101229.34;;;22.35;54.71
35704;BME280;21820;51.112;13.762;2023-01-25T03:57:51;101224.53;;;22.42;54.51
35704;BME280;21820;51.112;13.762;2023-01-25T04:00:17;101234.81;;;22.70;53.45
35704;BME280;21820;51.112;13.762;2023-01-25T04:02:44;101237.53;;;22.68;53.79
35704;BME280;21820;51.112;13.762;2023-01-25T04:05:10;101236.00;;;22.66;54.29
35704;BME280;21820;51.112;13.762;2023-01-25T04:07:35;101225.16;;;22.58;53.85
35704;BME280;21820;51.112;13.762;2023-01-25T04:10:00;101205.44;;;22.40;54.57
35704;BME280;21820;51.112;13.762;2023-01-25T04:12:26;101226.00;;;22.46;54.48
35704;BME280;21820;51.112;13.762;2023-01-25T04:14:51;101214.25;;;22.39;54.60
35704;BME280;21820;51.112;13.762;2023-01-25T04:17:16;101221.72;;;22.32;54.67
35704;BME280;21820;51.112;13.762;2023-01-25T04:19:42;101210.06;;;22.24;55.28
35704;BME280;21820;51.112;13.762;2023-01-25T04:22:07;101226.22;;;22.18;54.91
35704;BME280;21820;51.112;13.762;2023-01-25T04:24:33;101215.69;;;22.05;55.73
35704;BME280;21820;51.112;13.762;2023-01-25T04:26:58;101218.22;;;22.07;55.57
35704;BME280;21820;51.112;13.762;2023-01-25T04:29:24;101203.75;;;21.88;55.33
35704;BME280;21820;51.112;13.762;2023-01-25T04:31:49;101221.84;;;21.91;56.14
35704;BME280;21820;51.112;13.762;2023-01-25T04:34:14;101223.56;;;21.92;55.59
35704;BME280;21820;51.112;13.762;2023-01-25T04:36:40;101227.78;;;22.08;55.20
35704;BME280;21820;51.112;13.762;2023-01-25T04:39:05;101226.88;;;22.59;54.28
35704;BME280;21820;51.112;13.762;2023-01-25T04:41:30;101216.88;;;23.12;52.21
35704;BME280;21820;51.112;13.762;2023-01-25T04:43:56;101217.97;;;23.57;51.43
35704;BME280;21820;51.112;13.762;2023-01-25T04:46:21;101200.78;;;23.88;50.07
35704;BME280;21820;51.112;13.762;2023-01-25T04:48:46;101211.50;;;24.19;49.44
35704;BME280;21820;51.112;13.762;2023-01-25T04:51:12;101210.34;;;24.34;48.91
35704;BME280;21820;51.112;13.762;2023-01-25T04:53:38;101209.38;;;24.46;48.46
35704;BME280;21820;51.112;13.762;2023-01-25T04:56:04;101207.09;;;24.53;48.69
35704;BME280;21820;51.112;13.762;2023-01-25T04:58:29;101213.19;;;24.65;48.29
35704;BME280;21820;51.112;13.762;2023-01-25T05:00:59;101196.81;;;24.50;48.58
35704;BME280;21820;51.112;13.762;2023-01-25T05:03:24;101205.19;;;24.66;48.03
35704;BME280;21820;51.112;13.762;2023-01-25T05:05:50;101202.34;;;24.69;48.32
35704;BME280;21820;51.112;13.762;2023-01-25T05:08:15;101208.44;;;24.70;48.07
35704;BME280;21820;51.112;13.762;2023-01-25T05:10:40;101187.13;;;24.62;48.53
35704;BME280;21820;51.112;13.762;2023-01-25T05:13:06;101208.91;;;24.75;47.91
35704;BME280;21820;51.112;13.762;2023-01-25T05:15:31;101206.28;;;24.86;48.29
35704;BME280;21820;51.112;13.762;2023-01-25T05:17:56;101205.44;;;24.85;47.77
35704;BME280;21820;51.112;13.762;2023-01-25T05:20:22;101185.47;;;24.83;47.99
35704;BME280;21820;51.112;13.762;2023-01-25T05:22:47;101208.28;;;24.93;47.35
35704;BME280;21820;51.112;13.762;2023-01-25T05:25:12;101196.47;;;24.99;47.65
35704;BME280;21820;51.112;13.762;2023-01-25T05:27:56;101193.06;;;25.08;47.39
35704;BME280;21820;51.112;13.762;2023-01-25T05:30:21;101190.94;;;25.02;47.32
35704;BME280;21820;51.112;13.762;2023-01-25T05:32:48;101192.94;;;25.09;47.48
35704;BME280;21820;51.112;13.762;2023-01-25T05:35:14;101186.41;;;25.04;47.25
35704;BME280;21820;51.112;13.762;2023-01-25T05:37:39;101184.75;;;24.92;47.63
35704;BME280;21820;51.112;13.762;2023-01-25T05:40:05;101177.59;;;24.72;47.83
35704;BME280;21820;51.112;13.762;2023-01-25T05:42:31;101194.31;;;24.60;48.16
35704;BME280;21820;51.112;13.762;2023-01-25T05:44:56;101176.59;;;24.39;48.82
35704;BME280;21820;51.112;13.762;2023-01-25T05:47:22;101187.72;;;24.21;49.60
35704;BME280;21820;51.112;13.762;2023-01-25T05:49:47;101177.78;;;24.02;49.88
35704;BME280;21820;51.112;13.762;2023-01-25T05:52:16;101174.88;;;23.94;50.32
35704;BME280;21820;51.112;13.762;2023-01-25T05:54:41;101179.53;;;23.91;50.43
35704;BME280;21820;51.112;13.762;2023-01-25T05:57:07;101168.66;;;23.84;50.35
35704;BME280;21820;51.112;13.762;2023-01-25T05:59:32;101175.31;;;23.88;50.39
35704;BME280;21820;51.112;13.762;2023-01-25T06:01:57;101168.16;;;23.90;50.27
35704;BME280;21820;51.112;13.762;2023-01-25T06:04:23;101172.25;;;23.94;50.46
35704;BME280;21820;51.112;13.762;2023-01-25T06:06:48;101169.19;;;24.00;50.07
35704;BME280;21820;51.112;13.762;2023-01-25T06:09:14;101160.38;;;24.01;49.64
35704;BME280;21820;51.112;13.762;2023-01-25T06:11:42;101166.31;;;24.03;50.21
35704;BME280;21820;51.112;13.762;2023-01-25T06:14:08;101165.88;;;24.09;49.52
35704;BME280;21820;51.112;13.762;2023-01-25T06:16:34;101163.56;;;24.05;50.14
35704;BME280;21820;51.112;13.762;2023-01-25T06:18:59;101163.91;;;24.00;49.75
35704;BME280;21820;51.112;13.762;2023-01-25T06:21:25;101161.50;;;23.86;50.70
35704;BME280;21820;51.112;13.762;2023-01-25T06:23:50;101151.91;;;23.74;50.00
35704;BME280;21820;51.112;13.762;2023-01-25T06:26:15;101170.78;;;23.79;50.16
35704;BME280;21820;51.112;13.762;2023-01-25T06:28:41;101166.25;;;23.81;50.59
35704;BME280;21820;51.112;13.762;2023-01-25T06:31:12;101169.94;;;23.79;50.82
35704;BME280;21820;51.112;13.762;2023-01-25T06:33:39;101164.31;;;23.83;50.21
35704;BME280;21820;51.112;13.762;2023-01-25T06:36:10;101162.19;;;23.88;50.00
35704;BME280;21820;51.112;13.762;2023-01-25T06:38:35;101171.06;;;23.98;49.72
35704;BME280;21820;51.112;13.762;2023-01-25T06:41:03;101167.28;;;24.02;49.66
35704;BME280;21820;51.112;13.762;2023-01-25T06:43:30;101158.88;;;23.97;50.42
35704;BME280;21820;51.112;13.762;2023-01-25T06:46:03;101162.09;;;23.90;50.03
35704;BME280;21820;51.112;13.762;2023-01-25T06:48:30;101161.00;;;23.81;50.96
35704;BME280;21820;51.112;13.762;2023-01-25T06:50:57;101158.44;;;23.69;50.47
35704;BME280;21820;51.112;13.762;2023-01-25T06:53:28;101159.53;;;23.66;51.37
35704;BME280;21820;51.112;13.762;2023-01-25T06:58:22;101157.63;;;23.68;50.55
35704;BME280;21820;51.112;13.762;2023-01-25T07:00:47;101155.25;;;23.76;51.06
35704;BME280;21820;51.112;13.762;2023-01-25T07:03:13;101158.38;;;23.81;50.73
35704;BME280;21820;51.112;13.762;2023-01-25T07:05:38;101147.75;;;23.83;50.98
35704;BME280;21820;51.112;13.762;2023-01-25T07:08:04;101142.75;;;23.91;50.08
35704;BME280;21820;51.112;13.762;2023-01-25T07:10:29;101140.03;;;24.03;50.09
35704;BME280;21820;51.112;13.762;2023-01-25T07:12:54;101139.34;;;24.01;49.68
35704;BME280;21820;51.112;13.762;2023-01-25T07:15:20;101138.63;;;24.10;49.45
35704;BME280;21820;51.112;13.762;2023-01-25T07:17:45;101139.09;;;24.04;50.12
35704;BME280;21820;51.112;13.762;2023-01-25T07:20:11;101137.97;;;23.85;50.58
35704;BME280;21820;51.112;13.762;2023-01-25T07:22:36;101140.94;;;23.80;50.28
35704;BME280;21820;51.112;13.762;2023-01-25T07:25:02;101130.66;;;23.77;50.26
35704;BME280;21820;51.112;13.762;2023-01-25T07:27:27;101135.19;;;23.75;50.40
35704;BME280;21820;51.112;13.762;2023-01-25T07:29:53;101132.13;;;23.81;50.77
35704;BME280;21820;51.112;13.762;2023-01-25T07:32:18;101126.75;;;23.83;50.85
35704;BME280;21820;51.112;13.762;2023-01-25T07:34:44;101113.84;;;23.80;50.57
35704;BME280;21820;51.112;13.762;2023-01-25T07:37:09;101117.53;;;23.88;50.75
35704;BME280;21820;51.112;13.762;2023-01-25T07:39:34;101106.69;;;23.93;50.06
35704;BME280;21820;51.112;13.762;2023-01-25T07:42:00;101113.28;;;23.98;50.29
35704;BME280;21820;51.112;13.762;2023-01-25T07:44:25;101107.56;;;24.04;49.57
35704;BME280;21820;51.112;13.762;2023-01-25T07:46:52;101103.72;;;24.08;49.96
35704;BME280;21820;51.112;13.762;2023-01-25T07:49:17;101105.84;;;23.81;47.49
35704;BME280;21820;51.112;13.762;2023-01-25T07:51:43;101099.56;;;23.49;47.75
35704;BME280;21820;51.112;13.762;2023-01-25T07:54:09;101098.19;;;23.33;47.27
35704;BME280;21820;51.112;13.762;2023-01-25T07:56:36;101098.09;;;23.34;46.56
35704;BME280;21820;51.112;13.762;2023-01-25T07:59:03;101105.16;;;23.34;46.31
35704;BME280;21820;51.112;13.762;2023-01-25T08:01:29;101089.53;;;23.43;45.86
35704;BME280;21820;51.112;13.762;2023-01-25T08:03:56;101086.44;;;23.49;45.24
35704;BME280;21820;51.112;13.762;2023-01-25T08:06:33;101083.56;;;23.52;44.96
35704;BME280;21820;51.112;13.762;2023-01-25T08:09:03;101088.38;;;23.58;45.62
35704;BME280;21820;51.112;13.762;2023-01-25T08:11:29;101082.66;;;23.64;44.82
35704;BME280;21820;51.112;13.762;2023-01-25T08:13:55;101079.66;;;23.69;44.67
35704;BME280;21820;51.112;13.762;2023-01-25T08:16:23;101076.97;;;23.81;44.67
35704;BME280;21820;51.112;13.762;2023-01-25T08:18:54;101086.00;;;23.88;43.63
35704;BME280;21820;51.112;13.762;2023-01-25T08:21:20;101083.06;;;23.93;43.65
35704;BME280;21820;51.112;13.762;2023-01-25T08:23:48;101081.13;;;23.95;43.88
35704;BME280;21820;51.112;13.762;2023-01-25T08:26:14;101083.50;;;23.87;43.92
35704;BME280;21820;51.112;13.762;2023-01-25T08:28:41;101075.16;;;23.82;43.87
35704;BME280;21820;51.112;13.762;2023-01-25T08:31:12;101087.94;;;23.86;44.21
35704;BME280;21820;51.112;13.762;2023-01-25T08:33:38;101082.44;;;23.89;43.03
35704;BME280;21820;51.112;13.762;2023-01-25T08:36:05;101089.72;;;23.97;42.91
35704;BME280;21820;51.112;13.762;2023-01-25T08:38:31;101084.88;;;24.03;43.00
35704;BME280;21820;51.112;13.762;2023-01-25T08:41:07;101085.09;;;24.11;42.40
35704;BME280;21820;51.112;13.762;2023-01-25T08:43:33;101078.66;;;24.15;42.32
35704;BME280;21820;51.112;13.762;2023-01-25T08:45:58;101082.25;;;24.25;42.08
35704;BME280;21820;51.112;13.762;2023-01-25T08:48:23;101082.84;;;24.29;42.61
35704;BME280;21820;51.112;13.762;2023-01-25T08:50:49;101080.31;;;24.38;41.99
35704;BME280;21820;51.112;13.762;2023-01-25T08:53:14;101075.41;;;24.45;41.74
35704;BME280;21820;51.112;13.762;2023-01-25T08:55:40;101070.72;;;24.48;41.29
35704;BME280;21820;51.112;13.762;2023-01-25T08:58:09;101065.72;;;24.45;41.26
35704;BME280;21820;51.112;13.762;2023-01-25T09:00:37;101068.25;;;24.36;41.45
35704;BME280;21820;51.112;13.762;2023-01-25T09:03:02;101070.06;;;24.24;41.80
35704;BME280;21820;51.112;13.762;2023-01-25T09:05:28;101068.38;;;24.23;41.84
35704;BME280;21820;51.112;13.762;2023-01-25T09:07:53;101070.41;;;24.09;42.58
35704;BME280;21820;51.112;13.762;2023-01-25T09:10:18;101059.03;;;23.97;43.22
35704;BME280;21820;51.112;13.762;2023-01-25T09:12:44;101068.63;;;23.98;42.60
35704;BME280;21820;51.112;13.762;2023-01-25T09:15:09;101060.53;;;24.01;42.07
35704;BME280;21820;51.112;13.762;2023-01-25T09:17:34;101041.72;;;23.95;42.34
35704;BME280;21820;51.112;13.762;2023-01-25T09:20:06;101060.75;;;24.09;42.21
35704;BME280;21820;51.112;13.762;2023-01-25T09:22:32;101049.13;;;24.23;42.16
35704;BME280;21820;51.112;13.762;2023-01-25T09:24:57;101042.69;;;24.27;41.76
35704;BME280;21820;51.112;13.762;2023-01-25T09:27:23;101033.25;;;24.35;41.53
35704;BME280;21820;51.112;13.762;2023-01-25T09:29:48;101023.91;;;24.31;41.71
35704;BME280;21820;51.112;13.762;2023-01-25T09:32:13;101027.94;;;24.46;41.15
35704;BME280;21820;51.112;13.762;2023-01-25T09:34:39;101036.44;;;24.50;40.88
35704;BME280;21820;51.112;13.762;2023-01-25T09:37:04;101044.19;;;24.52;41.37
35704;BME280;21820;51.112;13.762;2023-01-25T09:39:29;101043.94;;;24.66;40.95
35704;BME280;21820;51.112;13.762;2023-01-25T09:44:51;101042.38;;;24.63;40.36
35704;BME280;21820;51.112;13.762;2023-01-25T09:53:30;101038.66;;;24.12;41.79
35704;BME280;21820;51.112;13.762;2023-01-25T09:56:00;101034.97;;;24.14;41.51
35704;BME280;21820;51.112;13.762;2023-01-25T09:58:33;101044.47;;;24.26;41.73
35704;BME280;21820;51.112;13.762;2023-01-25T10:01:17;101022.97;;;24.21;41.15
35704;BME280;21820;51.112;13.762;2023-01-25T10:03:57;101030.81;;;24.43;41.17
35704;BME280;21820;51.112;13.762;2023-01-25T10:06:34;101031.78;;;24.42;40.55
35704;BME280;21820;51.112;13.762;2023-01-25T10:11:44;101030.19;;;24.62;40.58
35704;BME280;21820;51.112;13.762;2023-01-25T10:14:13;101029.31;;;24.84;40.21
35704;BME280;21820;51.112;13.762;2023-01-25T10:19:18;101019.69;;;24.94;39.24
35704;BME280;21820;51.112;13.762;2023-01-25T10:21:52;101012.75;;;24.93;38.97
35704;BME280;21820;51.112;13.762;2023-01-25T10:29:41;101013.16;;;24.45;40.28
35704;BME280;21820;51.112;13.762;2023-01-25T10:32:19;101008.16;;;24.31;40.78
35704;BME280;21820;51.112;13.762;2023-01-25T10:34:49;101009.72;;;24.34;41.03
35704;BME280;21820;51.112;13.762;2023-01-25T10:37:19;100999.09;;;24.24;41.06
35704;BME280;21820;51.112;13.762;2023-01-25T10:40:14;100988.81;;;24.21;41.23
35704;BME280;21820;51.112;13.762;2023-01-25T10:43:06;100989.53;;;24.34;40.78
35704;BME280;21820;51.112;13.762;2023-01-25T10:45:30;100970.41;;;24.32;40.48
35704;BME280;21820;51.112;13.762;2023-01-25T10:48:00;100978.03;;;24.35;41.06
35704;BME280;21820;51.112;13.762;2023-01-25T11:00:54;100945.31;;;24.60;40.38
35704;BME280;21820;51.112;13.762;2023-01-25T11:03:20;100925.56;;;24.66;40.94
35704;BME280;21820;51.112;13.762;2023-01-25T11:05:54;100936.91;;;24.77;40.74
35704;BME280;21820;51.112;13.762;2023-01-25T11:10:49;100933.63;;;24.85;40.32
35704;BME280;21820;51.112;13.762;2023-01-25T11:15:53;100915.16;;;24.43;41.88
35704;BME280;21820;51.112;13.762;2023-01-25T11:18:26;100926.19;;;24.37;42.02
35704;BME280;21820;51.112;13.762;2023-01-25T11:23:31;100930.91;;;24.12;42.45
35704;BME280;21820;51.112;13.762;2023-01-25T11:26:17;100931.03;;;24.10;43.11
35704;BME280;21820;51.112;13.762;2023-01-25T11:28:45;100919.81;;;24.08;43.46
35704;BME280;21820;51.112;13.762;2023-01-25T11:31:16;100917.84;;;24.21;42.83
35704;BME280;21820;51.112;13.762;2023-01-25T11:33:44;100914.50;;;24.30;42.99
35704;BME280;21820;51.112;13.762;2023-01-25T11:36:19;100911.56;;;24.44;42.77
35704;BME280;21820;51.112;13.762;2023-01-25T11:41:32;100889.16;;;24.82;42.19
35704;BME280;21820;51.112;13.762;2023-01-25T11:46:48;100875.94;;;25.43;41.09
35704;BME280;21820;51.112;13.762;2023-01-25T11:54:50;100843.72;;;25.70;41.68
35704;BME280;21820;51.112;13.762;2023-01-25T11:57:33;100866.56;;;25.69;41.72
35704;BME280;21820;51.112;13.762;2023-01-25T12:00:13;100854.59;;;25.46;43.07
35704;BME280;21820;51.112;13.762;2023-01-25T12:08:06;100824.91;;;25.35;43.38
35704;BME280;21820;51.112;13.762;2023-01-25T12:11:19;100834.88;;;25.41;44.05
35704;BME280;21820;51.112;13.762;2023-01-25T12:28:46;100803.22;;;26.28;42.35
35704;BME280;21820;51.112;13.762;2023-01-25T12:33:46;100791.38;;;26.51;41.92
35704;BME280;21820;51.112;13.762;2023-01-25T12:36:19;100786.13;;;26.51;42.02
35704;BME280;21820;51.112;13.762;2023-01-25T12:38:57;100781.31;;;26.28;42.91
35704;BME280;21820;51.112;13.762;2023-01-25T12:52:25;100762.56;;;25.45;45.21
35704;BME280;21820;51.112;13.762;2023-01-25T12:54:52;100764.34;;;25.35;44.83
35704;BME280;21820;51.112;13.762;2023-01-25T12:57:28;100747.94;;;25.22;45.17
35704;BME280;21820;51.112;13.762;2023-01-25T13:10:49;100748.44;;;26.03;43.75
35704;BME280;21820;51.112;13.762;2023-01-25T13:13:28;100739.16;;;25.99;44.20
35704;BME280;21820;51.112;13.762;2023-01-25T13:15:54;100741.09;;;26.16;43.17
35704;BME280;21820;51.112;13.762;2023-01-25T13:21:07;100733.84;;;26.37;43.36
35704;BME280;21820;51.112;13.762;2023-01-25T13:23:40;100732.69;;;26.49;43.51
35704;BME280;21820;51.112;13.762;2023-01-25T13:28:47;100729.78;;;26.52;43.44
35704;BME280;21820;51.112;13.762;2023-01-25T13:39:42;100711.25;;;25.97;44.98
35704;BME280;21820;51.112;13.762;2023-01-25T13:44:35;100704.34;;;25.67;45.23
35704;BME280;21820;51.112;13.762;2023-01-25T13:47:05;100702.97;;;25.63;45.21
35704;BME280;21820;51.112;13.762;2023-01-25T13:50:01;100706.97;;;25.67;45.88
35704;BME280;21820;51.112;13.762;2023-01-25T13:52:29;100701.59;;;25.78;45.43
35704;BME280;21820;51.112;13.762;2023-01-25T13:54:59;100695.88;;;25.92;45.49
35704;BME280;21820;51.112;13.762;2023-01-25T13:57:30;100699.78;;;26.07;44.91
35704;BME280;21820;51.112;13.762;2023-01-25T14:00:12;100686.41;;;26.18;44.23
35704;BME280;21820;51.112;13.762;2023-01-25T14:02:41;100684.31;;;26.22;44.62
35704;BME280;21820;51.112;13.762;2023-01-25T14:05:36;100686.53;;;26.26;44.14
35704;BME280;21820;51.112;13.762;2023-01-25T14:08:02;100671.25;;;26.30;44.20
35704;BME280;21820;51.112;13.762;2023-01-25T14:10:27;100674.09;;;26.55;44.30
35704;BME280;21820;51.112;13.762;2023-01-25T14:12:57;100672.16;;;26.48;43.68
35704;BME280;21820;51.112;13.762;2023-01-25T14:15:29;100668.47;;;26.31;41.01
35704;BME280;21820;51.112;13.762;2023-01-25T14:18:17;100661.44;;;26.22;40.01
35704;BME280;21820;51.112;13.762;2023-01-25T14:20:45;100654.97;;;26.07;41.20
35704;BME280;21820;51.112;13.762;2023-01-25T14:25:46;100651.44;;;25.41;40.98
35704;BME280;21820;51.112;13.762;2023-01-25T14:28:13;100663.56;;;25.33;40.22
35704;BME280;21820;51.112;13.762;2023-01-25T14:30:39;100655.50;;;25.06;40.83
35704;BME280;21820;51.112;13.762;2023-01-25T14:33:22;100644.66;;;24.80;40.49
35704;BME280;21820;51.112;13.762;2023-01-25T14:35:49;100657.69;;;24.82;40.78
35704;BME280;21820;51.112;13.762;2023-01-25T14:40:45;100644.41;;;24.83;40.71
35704;BME280;21820;51.112;13.762;2023-01-25T14:43:11;100636.66;;;25.01;40.22
35704;BME280;21820;51.112;13.762;2023-01-25T14:45:38;100635.44;;;25.14;39.98
35704;BME280;21820;51.112;13.762;2023-01-25T14:48:04;100645.97;;;25.24;39.80